Time;durP1;ratioP1;P1;durP2;ratioP2;P2;SDS_P1;SDS_P2;PMS_P1;PMS_P2;Temp;Humidity;BMP_temperature;BMP_pressure;BME280_temperature;BME280_humidity;BME280_pressure;Samples;Min_cycle;Max_cycle;Signal;HPM_P1;HPM_P2
2022/12/17 13:06:35;;;;;;;7.35;5.00;;;22.80;51.40;;;;;;5040602;28;20674;-45
2022/12/17 13:09:17;;;;;;;6.40;5.80;;;22.80;51.40;;;;;;5048945;28;20310;-46
2022/12/17 13:11:46;;;;;;;6.45;5.22;;;22.80;51.50;;;;;;5036208;28;20196;-46
2022/12/17 13:14:18;;;;;;;6.50;5.63;;;22.80;51.60;;;;;;5050766;28;20575;-45
2022/12/17 13:16:52;;;;;;;6.28;5.20;;;22.80;51.60;;;;;;5053744;28;20191;-45
2022/12/17 13:19:32;;;;;;;5.80;5.28;;;22.80;51.70;;;;;;5048095;28;20224;-46
2022/12/17 13:22:10;;;;;;;6.80;6.15;;;22.80;51.80;;;;;;5057524;28;20548;-45
2022/12/17 13:24:38;;;;;;;12.43;5.95;;;22.80;51.90;;;;;;5050395;28;20201;-44
2022/12/17 13:27:25;;;;;;;5.40;4.90;;;22.80;52.00;;;;;;5040463;28;20874;-45
2022/12/17 13:29:52;;;;;;;8.07;6.70;;;22.80;52.10;;;;;;5047501;28;20241;-47
2022/12/17 13:32:25;;;;;;;6.05;5.45;;;22.80;52.10;;;;;;5050331;28;20196;-47
2022/12/17 13:35:06;;;;;;;5.65;5.13;;;22.70;52.10;;;;;;5052502;28;20199;-45
2022/12/17 13:37:42;;;;;;;6.55;5.95;;;22.80;52.30;;;;;;5051151;28;20200;-43
2022/12/17 13:40:34;;;;;;;6.00;5.45;;;22.80;52.30;;;;;;5043897;28;20214;-45
2022/12/17 13:43:01;;;;;;;9.55;5.60;;;22.70;52.30;;;;;;5049592;28;20197;-46
2022/12/17 13:45:31;;;;;;;5.70;4.90;;;22.70;52.40;;;;;;5046875;28;20200;-46
2022/12/17 13:47:59;;;;;;;4.95;4.50;;;22.70;52.40;;;;;;5051466;28;20599;-45
2022/12/17 13:50:28;;;;;;;6.07;4.65;;;22.70;52.50;;;;;;5051740;28;20226;-46
2022/12/17 13:52:55;;;;;;;6.13;5.10;;;22.70;52.50;;;;;;5042058;28;20618;-46
2022/12/17 13:55:24;;;;;;;6.05;4.78;;;22.70;53.10;;;;;;5057697;28;20249;-45
2022/12/17 13:57:53;;;;;;;5.85;4.90;;;22.70;52.60;;;;;;5040257;28;20204;-46
2022/12/17 14:00:23;;;;;;;7.10;5.53;;;22.60;52.80;;;;;;5044528;28;20197;-45
2022/12/17 14:02:50;;;;;;;6.20;5.43;;;22.50;52.80;;;;;;5041502;28;20199;-45
2022/12/17 14:05:24;;;;;;;5.80;4.78;;;22.50;53.00;;;;;;5046318;28;20200;-45
2022/12/17 14:07:52;;;;;;;5.28;4.72;;;22.40;53.50;;;;;;5041674;28;20196;-45
2022/12/17 14:10:20;;;;;;;5.88;4.65;;;22.40;53.20;;;;;;5048133;28;20231;-47
2022/12/17 14:12:48;;;;;;;5.97;5.38;;;22.40;53.20;;;;;;5044520;28;20196;-46
2022/12/17 14:15:23;;;;;;;7.03;4.72;;;22.50;53.00;;;;;;5050050;28;20196;-45
2022/12/17 14:17:50;;;;;;;6.97;4.50;;;22.60;53.10;;;;;;5049557;28;20202;-43
2022/12/17 14:20:20;;;;;;;6.70;5.03;;;22.80;53.00;;;;;;5040673;28;20224;-44
2022/12/17 14:22:49;;;;;;;5.35;4.35;;;22.80;53.30;;;;;;5044427;28;20192;-44
2022/12/17 14:25:18;;;;;;;5.05;4.57;;;22.90;52.70;;;;;;5042769;28;20651;-47
2022/12/17 14:27:55;;;;;;;5.07;4.35;;;23.00;52.60;;;;;;5040790;28;20195;-46
2022/12/17 14:30:33;;;;;;;5.15;4.20;;;23.10;52.60;;;;;;5045013;28;20224;-42
2022/12/17 14:32:59;;;;;;;16.48;5.47;;;23.10;52.50;;;;;;5039069;28;20204;-46
2022/12/17 14:35:29;;;;;;;5.60;5.05;;;23.20;52.50;;;;;;5039486;28;20193;-44
2022/12/17 14:37:56;;;;;;;5.72;5.13;;;23.20;52.50;;;;;;5047894;28;20196;-46
2022/12/17 14:40:24;;;;;;;5.53;5.03;;;23.30;52.50;;;;;;5049237;28;20208;-43
2022/12/17 14:42:52;;;;;;;5.32;4.55;;;23.30;52.30;;;;;;5046681;28;20204;-43
2022/12/17 14:45:25;;;;;;;6.00;5.50;;;23.40;52.20;;;;;;5049417;28;20270;-43
2022/12/17 14:47:54;;;;;;;5.43;4.93;;;23.40;52.00;;;;;;5046675;28;20188;-43
2022/12/17 14:50:30;;;;;;;6.53;4.68;;;23.40;52.10;;;;;;5045035;28;20243;-43
2022/12/17 14:52:58;;;;;;;5.05;4.63;;;23.30;52.00;;;;;;5045658;28;20218;-43
2022/12/17 14:55:32;;;;;;;5.88;5.28;;;23.10;52.10;;;;;;5047221;28;20196;-43
2022/12/17 14:58:19;;;;;;;5.25;4.70;;;23.10;52.20;;;;;;5045938;28;20200;-42
2022/12/17 15:00:51;;;;;;;5.00;4.60;;;23.00;52.20;;;;;;5043747;28;20201;-42
2022/12/17 15:03:21;;;;;;;5.47;4.90;;;23.00;52.30;;;;;;5036320;28;20653;-47
2022/12/17 15:05:52;;;;;;;5.90;5.03;;;22.90;52.50;;;;;;5039683;28;20466;-46
2022/12/17 15:08:20;;;;;;;5.47;4.97;;;22.80;52.80;;;;;;5038960;28;20196;-48
2022/12/17 15:10:47;;;;;;;4.65;4.22;;;22.90;53.10;;;;;;5036438;28;20226;-42
2022/12/17 15:13:14;;;;;;;14.90;4.80;;;22.90;53.00;;;;;;5039543;28;20555;-47
2022/12/17 15:15:40;;;;;;;10.32;3.92;;;22.90;52.90;;;;;;5040155;28;20200;-47
2022/12/17 15:18:08;;;;;;;6.10;3.72;;;22.90;52.80;;;;;;5038892;28;20215;-47
2022/12/17 15:20:36;;;;;;;6.10;4.40;;;23.00;53.00;;;;;;5040268;28;20704;-46
2022/12/17 15:23:02;;;;;;;4.18;3.83;;;23.00;53.20;;;;;;5040841;28;20195;-44
2022/12/17 15:25:29;;;;;;;6.03;3.88;;;23.00;53.00;;;;;;5040339;28;20246;-46
2022/12/17 15:27:56;;;;;;;4.45;4.05;;;23.10;53.10;;;;;;5037775;28;20204;-42
2022/12/17 15:30:22;;;;;;;4.95;4.45;;;23.00;53.10;;;;;;5047212;28;20222;-44
2022/12/17 15:32:49;;;;;;;4.35;3.95;;;23.10;53.40;;;;;;5048169;28;20200;-44
2022/12/17 15:35:17;;;;;;;4.82;4.05;;;23.10;53.40;;;;;;5039611;28;20231;-45
2022/12/17 15:37:44;;;;;;;5.50;4.38;;;23.10;53.40;;;;;;5037895;28;20194;-46
2022/12/17 15:40:11;;;;;;;5.30;3.60;;;23.00;53.50;;;;;;5044945;28;20214;-47
2022/12/17 15:45:22;;;;;;;4.88;4.47;;;23.10;53.40;;;;;;5045155;28;20207;-46
2022/12/17 15:47:48;;;;;;;5.30;4.07;;;23.10;53.30;;;;;;5049790;28;20576;-47
2022/12/17 15:50:17;;;;;;;5.15;4.18;;;23.10;53.30;;;;;;5046491;28;20224;-46
2022/12/17 15:52:43;;;;;;;4.75;4.25;;;23.10;53.40;;;;;;5050965;28;20567;-47
2022/12/17 15:55:11;;;;;;;5.97;3.95;;;23.10;53.40;;;;;;5063607;28;20223;-47
2022/12/17 15:57:38;;;;;;;4.80;3.30;;;23.10;53.40;;;;;;5038179;28;21162;-46
2022/12/17 16:00:06;;;;;;;4.72;4.30;;;23.10;53.50;;;;;;5046814;28;20208;-47
2022/12/17 16:02:33;;;;;;;3.75;3.45;;;23.20;53.50;;;;;;5044590;28;20197;-46
2022/12/17 16:04:59;;;;;;;4.88;4.10;;;23.10;53.50;;;;;;5044870;28;20664;-47
2022/12/17 16:07:28;;;;;;;6.53;4.32;;;23.10;53.50;;;;;;5045186;28;20246;-46
2022/12/17 16:09:54;;;;;;;3.63;3.33;;;23.10;53.50;;;;;;5042777;28;20221;-46
2022/12/17 16:12:21;;;;;;;4.72;3.63;;;23.10;53.60;;;;;;5044162;28;20661;-45
2022/12/17 16:14:48;;;;;;;4.72;3.92;;;23.10;53.70;;;;;;5045072;28;20204;-46
2022/12/17 16:17:15;;;;;;;4.63;3.80;;;23.10;53.80;;;;;;5044060;28;20592;-46
2022/12/17 16:19:41;;;;;;;5.80;4.32;;;23.10;53.90;;;;;;5045601;28;20227;-46
2022/12/17 16:22:08;;;;;;;3.95;3.55;;;23.10;53.90;;;;;;5051289;28;20196;-45
2022/12/17 16:24:36;;;;;;;3.70;3.38;;;23.00;53.80;;;;;;5046568;28;20675;-46
2022/12/17 16:27:03;;;;;;;3.47;3.05;;;23.00;53.90;;;;;;5046207;28;20275;-46
2022/12/17 16:29:30;;;;;;;4.10;3.70;;;23.00;53.90;;;;;;5044897;28;20211;-46
2022/12/17 16:31:56;;;;;;;5.10;4.60;;;23.10;54.00;;;;;;5041829;28;20979;-46
2022/12/17 16:34:23;;;;;;;4.55;4.05;;;23.00;53.90;;;;;;5037389;28;20481;-45
2022/12/17 16:36:50;;;;;;;6.40;4.50;;;23.10;54.10;;;;;;5042737;28;20195;-45
2022/12/17 16:39:19;;;;;;;8.25;4.10;;;23.10;54.00;;;;;;5040472;28;20461;-45
2022/12/17 16:41:47;;;;;;;4.60;4.20;;;23.10;54.10;;;;;;5046467;28;20197;-47
2022/12/17 16:44:13;;;;;;;10.98;9.43;;;23.10;53.10;;;;;;5042080;28;20257;-42
2022/12/17 16:46:41;;;;;;;10.77;8.73;;;22.60;50.00;;;;;;5047230;28;20555;-41
2022/12/17 16:49:11;;;;;;;24.40;12.88;;;22.50;49.40;;;;;;5048056;28;20199;-41
2022/12/17 16:51:38;;;;;;;14.73;11.07;;;22.30;48.10;;;;;;5048386;28;20403;-41
2022/12/17 16:54:06;;;;;;;16.55;14.75;;;22.10;47.60;;;;;;5046367;28;20206;-41
2022/12/17 16:56:33;;;;;;;16.27;13.52;;;22.10;47.60;;;;;;5042132;28;20203;-42
2022/12/17 16:59:02;;;;;;;17.00;15.02;;;21.90;45.80;;;;;;5045094;28;20196;-42
2022/12/17 17:01:29;;;;;;;18.75;15.25;;;21.70;45.80;;;;;;5047331;28;20206;-41
2022/12/17 17:03:57;;;;;;;21.13;18.02;;;21.50;45.20;;;;;;5045595;28;20199;-42
2022/12/17 17:06:24;;;;;;;23.77;19.55;;;21.30;43.80;;;;;;5047773;28;20195;-41
2022/12/17 17:08:51;;;;;;;23.35;19.17;;;21.00;43.80;;;;;;5043835;28;20206;-42
2022/12/17 17:11:20;;;;;;;25.65;22.10;;;20.90;43.90;;;;;;5043022;28;20217;-41
2022/12/17 17:13:48;;;;;;;24.77;22.23;;;20.70;43.60;;;;;;5040858;28;20658;-40
2022/12/17 17:16:17;;;;;;;30.08;27.25;;;20.40;43.00;;;;;;5042653;28;20660;-40
2022/12/17 17:18:43;;;;;;;51.83;47.80;;;19.90;41.90;;;;;;5039909;28;20195;-39
2022/12/17 17:21:15;;;;;;;16.88;12.23;;;19.50;43.10;;;;;;5037111;28;20200;-39
2022/12/17 17:23:42;;;;;;;20.50;16.25;;;19.90;45.90;;;;;;5039210;28;20202;-39
2022/12/17 17:26:09;;;;;;;19.98;13.15;;;20.50;47.00;;;;;;5047852;28;20653;-39
2022/12/17 17:28:36;;;;;;;12.63;11.00;;;21.00;47.10;;;;;;5037663;28;20230;-39
2022/12/17 17:31:05;;;;;;;15.82;10.70;;;21.50;47.50;;;;;;5043970;28;20230;-40
2022/12/17 17:33:37;;;;;;;16.45;10.75;;;21.80;47.90;;;;;;5048819;28;20563;-41
2022/12/17 17:36:04;;;;;;;19.65;11.27;;;22.10;48.00;;;;;;5040515;28;20210;-41
2022/12/17 17:38:32;;;;;;;20.50;11.35;;;22.20;49.20;;;;;;5036352;28;20283;-40
2022/12/17 17:40:59;;;;;;;20.50;11.52;;;22.30;49.40;;;;;;5047779;28;20206;-39
2022/12/17 17:43:26;;;;;;;14.73;9.80;;;22.50;49.20;;;;;;5041203;28;20203;-39
2022/12/17 17:45:54;;;;;;;18.63;10.32;;;22.60;49.50;;;;;;5047040;28;20203;-37
2022/12/17 17:48:24;;;;;;;14.25;10.50;;;22.60;49.90;;;;;;5053446;28;20219;-39
2022/12/17 17:50:58;;;;;;;18.15;10.63;;;22.60;50.00;;;;;;5046443;28;20230;-40
2022/12/17 17:53:25;;;;;;;14.60;9.75;;;22.60;50.30;;;;;;5045568;28;20197;-38
2022/12/17 17:55:52;;;;;;;15.95;9.73;;;22.50;50.30;;;;;;5051087;28;20254;-40
2022/12/17 17:58:19;;;;;;;16.77;11.25;;;22.50;50.60;;;;;;5045796;28;20199;-39
2022/12/17 18:00:46;;;;;;;17.92;11.32;;;22.50;50.80;;;;;;5048461;28;20199;-40
2022/12/17 18:03:13;;;;;;;15.23;10.00;;;22.40;50.90;;;;;;5050780;28;20564;-39
2022/12/17 18:05:41;;;;;;;13.77;9.10;;;22.40;51.20;;;;;;5047812;28;20197;-39
2022/12/17 18:08:09;;;;;;;17.05;8.80;;;22.40;51.40;;;;;;5051662;28;20282;-39
2022/12/17 18:10:36;;;;;;;14.07;9.55;;;22.30;51.50;;;;;;5060641;28;20216;-35
2022/12/17 18:15:47;;;;;;;18.02;10.50;;;22.20;51.50;;;;;;5042398;28;20374;-35
2022/12/17 18:18:13;;;;;;;14.93;10.57;;;22.10;51.70;;;;;;5042189;28;20196;-35
2022/12/17 18:20:40;;;;;;;14.80;8.55;;;22.00;51.90;;;;;;5048198;28;20216;-35
2022/12/17 18:23:08;;;;;;;13.07;9.55;;;21.90;52.00;;;;;;5049654;28;20196;-35
2022/12/17 18:25:35;;;;;;;14.98;8.45;;;21.80;52.10;;;;;;5048529;28;20725;-35
2022/12/17 18:28:02;;;;;;;16.80;9.60;;;21.70;52.10;;;;;;5036269;28;20529;-35
2022/12/17 18:30:29;;;;;;;15.13;9.70;;;21.70;52.20;;;;;;5047006;28;20225;-35
2022/12/17 18:32:56;;;;;;;13.40;9.60;;;21.70;52.30;;;;;;5037026;28;20264;-35
2022/12/17 18:35:22;;;;;;;10.82;8.23;;;21.70;52.30;;;;;;5043810;28;20192;-35
2022/12/17 18:37:49;;;;;;;12.68;8.35;;;21.70;52.30;;;;;;5048260;28;20195;-35
2022/12/17 18:40:17;;;;;;;11.25;8.07;;;21.70;52.30;;;;;;5046595;28;20204;-35
2022/12/17 18:45:28;;;;;;;13.93;7.75;;;21.90;52.30;;;;;;5044404;28;20362;-35
2022/12/17 18:47:55;;;;;;;14.50;8.77;;;22.00;52.30;;;;;;5042532;28;20196;-35
2022/12/17 18:50:22;;;;;;;12.45;8.18;;;22.00;52.30;;;;;;5038306;28;20573;-35
2022/12/17 18:52:49;;;;;;;16.38;8.13;;;22.10;52.20;;;;;;5049779;28;20203;-34
2022/12/17 18:55:17;;;;;;;14.90;8.40;;;22.20;52.20;;;;;;5043687;28;20194;-35
2022/12/17 18:57:43;;;;;;;14.35;8.90;;;22.10;52.30;;;;;;5045834;28;20279;-34
2022/12/17 19:00:11;;;;;;;14.13;8.70;;;22.20;52.20;;;;;;5042669;28;20666;-35
2022/12/17 19:02:38;;;;;;;14.52;8.35;;;22.30;52.10;;;;;;5046443;28;20192;-35
2022/12/17 19:05:05;;;;;;;12.70;8.15;;;22.30;52.00;;;;;;5036869;28;20199;-35
2022/12/17 19:07:32;;;;;;;10.68;7.53;;;22.40;52.00;;;;;;5039206;28;20678;-35
2022/12/17 19:09:59;;;;;;;10.90;7.65;;;22.40;52.00;;;;;;5045579;28;20196;-34
2022/12/17 19:12:28;;;;;;;11.73;8.45;;;22.40;52.00;;;;;;5039917;28;20200;-35
2022/12/17 19:14:54;;;;;;;13.48;8.95;;;22.40;51.90;;;;;;5044175;28;20292;-35
2022/12/17 19:17:21;;;;;;;13.18;8.63;;;22.30;51.90;;;;;;5039244;28;20228;-35
2022/12/17 19:19:48;;;;;;;13.50;8.90;;;22.30;51.90;;;;;;5049026;28;20228;-35
2022/12/17 19:22:14;;;;;;;18.08;9.05;;;22.30;52.00;;;;;;5045649;28;20196;-35
2022/12/17 19:24:41;;;;;;;13.48;8.63;;;22.30;52.20;;;;;;5049509;28;20569;-35
2022/12/17 19:27:08;;;;;;;12.85;8.65;;;22.20;52.20;;;;;;5044315;28;20205;-35
2022/12/17 19:29:37;;;;;;;12.73;8.68;;;22.20;52.20;;;;;;5042155;28;20842;-35
2022/12/17 19:32:04;;;;;;;13.63;7.68;;;22.10;52.20;;;;;;5050212;28;20734;-35
2022/12/17 19:34:33;;;;;;;15.23;9.48;;;22.10;52.30;;;;;;5049740;28;20195;-35
2022/12/17 19:37:00;;;;;;;9.90;8.32;;;22.10;52.30;;;;;;5038215;28;20227;-35
2022/12/17 19:39:27;;;;;;;11.95;7.80;;;22.00;52.30;;;;;;5044929;28;20212;-35
2022/12/17 19:41:54;;;;;;;12.98;8.43;;;22.00;52.50;;;;;;5037508;28;20199;-35
2022/12/17 19:44:20;;;;;;;12.93;7.55;;;21.90;52.50;;;;;;5043176;28;20804;-35
2022/12/17 19:46:49;;;;;;;13.43;9.38;;;21.90;52.60;;;;;;5049477;28;20207;-35
2022/12/17 19:49:16;;;;;;;9.98;7.65;;;21.90;52.60;;;;;;5045204;28;20383;-35
2022/12/17 19:51:43;;;;;;;12.93;8.02;;;21.90;53.20;;;;;;5057646;28;20215;-35
2022/12/17 19:54:10;;;;;;;13.57;8.90;;;21.80;52.70;;;;;;5055233;28;20197;-35
2022/12/17 19:56:37;;;;;;;15.30;8.38;;;21.80;52.80;;;;;;5049789;28;20223;-35
2022/12/17 19:59:06;;;;;;;14.50;8.60;;;21.80;52.70;;;;;;5058544;28;20676;-35
2022/12/17 20:01:35;;;;;;;13.70;8.77;;;21.90;52.80;;;;;;5048405;28;20717;-35
2022/12/17 20:04:04;;;;;;;12.82;8.95;;;21.90;52.70;;;;;;5040614;28;20195;-35
2022/12/17 20:06:33;;;;;;;12.30;8.38;;;21.90;52.80;;;;;;5043451;28;20219;-34
2022/12/17 20:09:00;;;;;;;13.23;9.00;;;22.00;52.80;;;;;;5049668;28;20211;-35
2022/12/17 20:11:33;;;;;;;12.30;8.48;;;22.00;52.80;;;;;;5048979;28;20224;-35
2022/12/17 20:14:02;;;;;;;14.50;9.15;;;21.90;52.80;;;;;;5048384;28;20204;-35
2022/12/17 20:16:31;;;;;;;10.60;8.10;;;21.90;52.70;;;;;;5046899;28;20681;-35
2022/12/17 20:18:59;;;;;;;13.60;8.93;;;22.00;52.80;;;;;;5051238;28;20196;-35
2022/12/17 20:21:28;;;;;;;13.15;8.20;;;22.00;52.70;;;;;;5036573;28;20331;-37
2022/12/17 20:23:55;;;;;;;11.40;7.38;;;22.00;52.70;;;;;;5037986;28;20198;-37
2022/12/17 20:26:22;;;;;;;13.88;8.18;;;22.10;52.70;;;;;;5045637;28;20201;-35
2022/12/17 20:28:48;;;;;;;12.30;10.13;;;22.10;53.20;;;;;;5048496;28;20650;-34
2022/12/17 20:31:16;;;;;;;8.70;7.35;;;22.00;52.60;;;;;;5037802;28;20223;-36
2022/12/17 20:33:42;;;;;;;12.43;8.15;;;22.00;52.70;;;;;;5048568;28;20255;-36
2022/12/17 20:36:12;;;;;;;11.95;8.73;;;22.10;52.70;;;;;;5045251;28;20572;-37
2022/12/17 20:38:41;;;;;;;15.45;7.78;;;22.10;52.60;;;;;;5048504;28;20244;-36
2022/12/17 20:41:11;;;;;;;14.90;8.73;;;22.00;52.60;;;;;;5049980;28;20226;-36
2022/12/17 20:43:38;;;;;;;12.07;8.55;;;22.00;52.80;;;;;;5044160;28;20191;-35
2022/12/17 20:46:08;;;;;;;11.55;7.60;;;22.00;52.80;;;;;;5047762;28;20199;-36
2022/12/17 20:48:35;;;;;;;12.82;8.55;;;22.00;52.80;;;;;;5049249;28;20191;-36
2022/12/17 20:51:05;;;;;;;10.82;8.63;;;21.90;52.80;;;;;;5050518;28;20226;-36
2022/12/17 20:53:33;;;;;;;11.48;7.75;;;21.80;52.70;;;;;;5043332;28;20273;-36
2022/12/17 20:56:03;;;;;;;13.88;8.88;;;21.90;52.70;;;;;;5041407;28;20195;-36
2022/12/17 20:58:30;;;;;;;13.07;8.18;;;21.90;52.80;;;;;;5045849;28;20199;-36
2022/12/17 21:01:05;;;;;;;11.10;7.65;;;21.80;52.70;;;;;;5044430;28;20219;-36
2022/12/17 21:03:32;;;;;;;14.50;9.43;;;21.80;52.90;;;;;;5048309;28;20206;-36
2022/12/17 21:06:10;;;;;;;13.48;9.15;;;21.80;52.90;;;;;;5050949;28;20222;-36
2022/12/17 21:08:38;;;;;;;10.85;7.88;;;21.80;52.90;;;;;;5045892;28;20194;-36
2022/12/17 21:11:07;;;;;;;11.48;7.85;;;21.80;52.90;;;;;;5047408;28;20583;-36
2022/12/17 21:13:34;;;;;;;9.68;7.75;;;21.80;52.90;;;;;;5049609;28;20192;-36
2022/12/17 21:16:03;;;;;;;12.38;7.72;;;21.80;52.90;;;;;;5050151;28;20192;-36
2022/12/17 21:18:31;;;;;;;13.98;9.65;;;21.80;53.00;;;;;;5049702;28;20199;-35
2022/12/17 21:21:00;;;;;;;9.30;8.32;;;21.70;52.90;;;;;;5046316;28;20219;-36
2022/12/17 21:23:28;;;;;;;10.82;8.05;;;21.70;53.00;;;;;;5047420;28;20195;-36
2022/12/17 21:25:59;;;;;;;11.50;7.50;;;21.70;53.00;;;;;;5041543;28;20555;-35
2022/12/17 21:28:27;;;;;;;18.10;9.10;;;21.80;53.00;;;;;;5039471;28;20192;-36
2022/12/17 21:30:54;;;;;;;10.38;8.30;;;21.70;53.00;;;;;;5044369;28;20224;-35
2022/12/17 21:33:21;;;;;;;9.07;7.57;;;21.60;53.00;;;;;;5044655;28;20206;-35
2022/12/17 21:35:48;;;;;;;16.73;7.95;;;21.70;53.10;;;;;;5041433;28;20200;-36
2022/12/17 21:38:15;;;;;;;10.60;7.43;;;21.70;53.00;;;;;;5053400;28;20198;-35
2022/12/17 21:40:42;;;;;;;12.20;7.95;;;21.70;53.00;;;;;;5057604;28;20200;-36
2022/12/17 21:43:10;;;;;;;10.90;7.85;;;21.70;53.00;;;;;;5044867;28;20200;-35
2022/12/17 21:45:40;;;;;;;9.70;7.55;;;21.70;53.00;;;;;;5046335;28;20669;-35
2022/12/17 21:48:09;;;;;;;10.38;8.45;;;21.70;53.10;;;;;;5049623;28;20227;-36
2022/12/17 21:50:40;;;;;;;13.85;7.78;;;21.70;53.00;;;;;;5050516;28;20199;-36
2022/12/17 21:53:07;;;;;;;11.23;8.55;;;21.70;53.00;;;;;;5043574;28;20295;-36
2022/12/17 21:55:34;;;;;;;11.13;8.70;;;21.70;53.00;;;;;;5050072;28;20200;-35
2022/12/17 21:58:01;;;;;;;13.68;8.50;;;21.70;52.90;;;;;;5045845;28;20405;-36
2022/12/17 22:00:27;;;;;;;9.52;8.30;;;21.70;53.00;;;;;;5047126;28;20204;-36
2022/12/17 22:02:56;;;;;;;9.95;7.80;;;21.80;53.00;;;;;;5047648;28;20207;-36
2022/12/17 22:05:22;;;;;;;9.63;7.32;;;21.80;53.00;;;;;;5053409;28;20266;-36
2022/12/17 22:07:49;;;;;;;11.52;7.75;;;21.80;53.00;;;;;;5053426;28;20201;-36
2022/12/17 22:10:16;;;;;;;9.93;7.65;;;21.80;53.00;;;;;;5049943;28;20208;-35
2022/12/17 22:15:27;;;;;;;11.50;7.20;;;21.90;52.90;;;;;;5053142;28;20211;-36
2022/12/17 22:17:55;;;;;;;9.65;7.10;;;21.80;53.00;;;;;;5034001;28;20199;-36
2022/12/17 22:20:22;;;;;;;9.15;8.10;;;21.80;53.00;;;;;;5035498;28;20218;-36
2022/12/17 22:22:49;;;;;;;10.85;7.75;;;21.80;52.90;;;;;;5042019;28;20219;-36
2022/12/17 22:25:16;;;;;;;8.82;7.85;;;21.80;53.00;;;;;;5036808;28;20189;-36
2022/12/17 22:27:43;;;;;;;10.88;7.88;;;21.90;52.90;;;;;;5041560;28;20201;-35
2022/12/17 22:33:01;;;;;;;8.48;7.45;;;21.80;52.90;;;;;;5036391;28;20235;-35
2022/12/17 22:35:31;;;;;;;13.38;7.60;;;21.80;52.90;;;;;;5043056;28;20207;-36
2022/12/17 22:37:58;;;;;;;9.85;7.00;;;21.80;52.90;;;;;;5046734;28;20203;-35
2022/12/17 22:40:25;;;;;;;11.27;8.88;;;21.70;52.90;;;;;;5042290;28;20199;-35
2022/12/17 22:45:38;;;;;;;9.07;7.88;;;21.80;53.00;;;;;;5039857;28;20209;-35
2022/12/17 22:48:06;;;;;;;7.80;7.00;;;21.80;53.00;;;;;;5038118;28;20295;-36
2022/12/17 22:50:33;;;;;;;10.75;8.70;;;21.80;53.00;;;;;;5042180;28;20271;-36
2022/12/17 22:53:00;;;;;;;11.48;9.32;;;21.80;53.00;;;;;;5047512;28;20220;-36
2022/12/17 22:55:27;;;;;;;9.88;7.32;;;21.90;52.90;;;;;;5045243;28;20313;-35
2022/12/17 22:57:54;;;;;;;10.73;8.35;;;21.90;52.80;;;;;;5044297;28;20196;-35
2022/12/17 23:00:23;;;;;;;9.32;7.75;;;21.80;52.90;;;;;;5043998;28;20199;-36
2022/12/17 23:02:52;;;;;;;8.35;7.55;;;21.80;53.00;;;;;;5047758;28;20206;-35
2022/12/17 23:05:21;;;;;;;8.52;7.72;;;21.90;52.90;;;;;;5046513;28;20245;-35
2022/12/17 23:07:47;;;;;;;9.40;8.40;;;21.90;53.00;;;;;;5041888;28;20200;-35
2022/12/17 23:10:14;;;;;;;7.40;6.70;;;21.80;53.00;;;;;;5047780;28;20614;-35
2022/12/17 23:12:50;;;;;;;10.88;8.27;;;21.80;53.00;;;;;;5043081;28;20219;-35
2022/12/17 23:15:17;;;;;;;8.80;7.93;;;21.80;52.90;;;;;;5047736;28;20199;-36
2022/12/17 23:17:44;;;;;;;12.10;7.45;;;21.80;52.90;;;;;;5045154;28;20196;-36
2022/12/17 23:20:12;;;;;;;9.40;7.97;;;21.80;52.90;;;;;;5043628;28;20219;-36
2022/12/17 23:22:40;;;;;;;9.30;6.90;;;21.80;53.00;;;;;;5044930;28;20212;-36
2022/12/17 23:25:08;;;;;;;10.15;8.27;;;21.80;53.00;;;;;;5045113;28;20203;-36
2022/12/17 23:27:34;;;;;;;9.27;6.70;;;21.80;53.00;;;;;;5046536;28;20224;-36
2022/12/17 23:30:01;;;;;;;9.30;7.68;;;21.80;53.00;;;;;;5051467;28;20203;-36
2022/12/17 23:32:28;;;;;;;9.10;7.53;;;21.80;52.90;;;;;;5051534;28;20226;-36
2022/12/17 23:34:55;;;;;;;10.60;7.57;;;21.80;53.00;;;;;;5051110;28;20207;-35
2022/12/17 23:37:21;;;;;;;9.63;7.30;;;21.80;53.00;;;;;;5047378;28;20196;-35
2022/12/17 23:39:49;;;;;;;10.18;7.75;;;21.80;53.50;;;;;;5050410;28;20198;-35
2022/12/17 23:42:16;;;;;;;9.70;7.72;;;21.70;52.90;;;;;;5048797;28;20192;-35
2022/12/17 23:44:43;;;;;;;8.25;7.13;;;21.80;53.00;;;;;;5049512;28;20204;-35
2022/12/17 23:47:09;;;;;;;8.02;7.22;;;21.80;52.90;;;;;;5048089;28;20187;-36
2022/12/17 23:49:36;;;;;;;9.40;7.45;;;21.80;52.90;;;;;;5050157;28;20537;-35
2022/12/17 23:52:03;;;;;;;11.68;7.18;;;21.70;52.90;;;;;;5045756;28;20240;-35
2022/12/17 23:54:30;;;;;;;9.55;7.55;;;21.80;52.90;;;;;;5052527;28;20195;-36
2022/12/17 23:56:58;;;;;;;8.13;7.43;;;21.80;53.00;;;;;;5048773;28;20195;-36
2022/12/17 23:59:24;;;;;;;9.88;7.68;;;21.80;52.80;;;;;;5050264;28;20195;-35
